Time;durP1;ratioP1;P1;durP2;ratioP2;P2;SDS_P1;SDS_P2;PMS_P1;PMS_P2;Temp;Humidity;BMP_temperature;BMP_pressure;BME280_temperature;BME280_humidity;BME280_pressure;Samples;Min_cycle;Max_cycle;Signal;HPM_P1;HPM_P2
2023/09/20 00:02:12;;;;;;;26.38;24.88;;;;;;;14.06;100.00;101267.69;5079604;28;20151;-79
2023/09/20 00:04:39;;;;;;;28.30;26.70;;;;;;;13.96;100.00;101268.97;5083357;28;20143;-80
2023/09/20 00:07:08;;;;;;;29.10;27.40;;;;;;;13.37;100.00;101277.25;5091729;28;20052;-79
2023/09/20 00:09:35;;;;;;;26.55;25.00;;;;;;;13.89;100.00;101275.41;5090800;28;20052;-74
2023/09/20 00:12:05;;;;;;;26.73;24.70;;;;;;;13.97;100.00;101267.94;5078005;28;20057;-79
2023/09/20 00:14:32;;;;;;;24.88;23.38;;;;;;;13.92;100.00;101278.47;5086624;28;20056;-74
2023/09/20 00:17:00;;;;;;;22.55;21.15;;;;;;;13.75;100.00;101280.81;5079171;28;20060;-74
2023/09/20 00:19:27;;;;;;;138.15;131.00;;;;;;;13.48;100.00;101276.63;5086447;28;20067;-79
2023/09/20 00:21:54;;;;;;;133.70;126.88;;;;;;;13.63;100.00;101281.69;5078843;28;20182;-79
2023/09/20 00:24:25;;;;;;;126.32;120.13;;;;;;;13.49;100.00;101280.91;5072099;28;20060;-79
2023/09/20 00:26:52;;;;;;;101.97;96.95;;;;;;;13.65;100.00;101276.97;5083070;28;20075;-79
2023/09/20 00:29:24;;;;;;;64.88;61.47;;;;;;;13.56;100.00;101272.91;5075768;28;20060;-80
2023/09/20 00:31:51;;;;;;;68.32;64.93;;;;;;;13.69;100.00;101275.50;5082565;28;20052;-80
2023/09/20 00:34:18;;;;;;;63.83;60.53;;;;;;;13.69;100.00;101275.50;5078302;28;20492;-80
2023/09/20 00:36:46;;;;;;;28.13;26.42;;;;;;;13.59;100.00;101277.81;5085368;28;20055;-79
2023/09/20 00:39:14;;;;;;;29.27;27.58;;;;;;;13.71;100.00;101268.91;5084737;28;20048;-79
2023/09/20 00:41:54;;;;;;;30.23;28.52;;;;;;;13.38;100.00;101258.38;5071842;28;20056;-79
2023/09/20 00:44:21;;;;;;;29.73;28.02;;;;;;;13.47;100.00;101265.13;5078118;28;20131;-79
2023/09/20 00:46:55;;;;;;;29.70;27.90;;;;;;;13.10;100.00;101269.34;5079626;28;20062;-80
2023/09/20 00:49:22;;;;;;;100.80;95.43;;;;;;;13.42;100.00;101261.44;5082191;28;20059;-79
2023/09/20 00:51:51;;;;;;;84.18;79.97;;;;;;;12.68;100.00;101266.09;5085949;28;20089;-80
2023/09/20 00:54:18;;;;;;;96.57;91.70;;;;;;;13.26;100.00;101276.09;5091628;28;20139;-79
2023/09/20 00:56:56;;;;;;;102.15;95.20;;;;;;;13.40;100.00;101266.16;5072047;28;20131;-79
2023/09/20 00:59:34;;;;;;;93.18;88.38;;;;;;;13.35;100.00;101266.81;5077967;28;20068;-80
2023/09/20 01:02:02;;;;;;;76.70;72.80;;;;;;;13.36;100.00;101267.63;5091290;28;20048;-74
2023/09/20 01:04:34;;;;;;;76.00;72.00;;;;;;;12.43;100.00;101283.72;5079472;28;20064;-80
2023/09/20 01:07:11;;;;;;;58.22;55.13;;;;;;;13.12;100.00;101288.59;5075472;28;20044;-80
2023/09/20 01:09:39;;;;;;;69.45;65.70;;;;;;;13.07;100.00;101285.72;5084039;28;20437;-80
2023/09/20 01:12:43;;;;;;;30.80;29.00;;;;;;;13.32;100.00;101287.78;5080402;28;20075;-79
2023/09/20 01:15:12;;;;;;;34.10;32.30;;;;;;;13.32;100.00;101285.91;5080638;28;20059;-75
2023/09/20 01:17:45;;;;;;;33.30;31.52;;;;;;;13.15;100.00;101282.84;5073700;28;20064;-74
2023/09/20 01:20:18;;;;;;;33.15;30.83;;;;;;;13.31;100.00;101283.44;5086785;28;20106;-79
2023/09/20 01:22:46;;;;;;;;;;;;;;;13.59;100.00;101265.28;5079904;28;20086;-75
2023/09/20 01:25:22;;;;;;;30.95;29.45;;;;;;;13.65;100.00;101267.09;5073547;28;20360;-79
2023/09/20 01:27:49;;;;;;;33.53;31.73;;;;;;;13.05;100.00;101267.28;5072998;28;20408;-79
2023/09/20 01:30:19;;;;;;;30.05;28.45;;;;;;;13.38;100.00;101277.06;5073615;28;20106;-75
2023/09/20 01:32:52;;;;;;;30.02;28.23;;;;;;;13.42;100.00;101275.59;5084711;28;20044;-79
2023/09/20 01:35:19;;;;;;;;;;;;;;;13.76;100.00;101276.28;5085156;28;20041;-79
2023/09/20 01:37:49;;;;;;;33.85;32.15;;;;;;;13.48;100.00;101268.59;5079848;28;19921;-80
2023/09/20 01:40:16;;;;;;;33.42;31.73;;;;;;;13.71;100.00;101266.25;5074113;28;20098;-80
2023/09/20 01:42:44;;;;;;;34.40;32.50;;;;;;;13.69;100.00;101254.97;5083568;28;20052;-80
2023/09/20 01:45:17;;;;;;;33.67;31.63;;;;;;;13.54;100.00;101246.41;5084097;28;20060;-80
2023/09/20 01:47:45;;;;;;;33.78;31.50;;;;;;;13.44;100.00;101252.22;5077243;28;20060;-79
2023/09/20 01:50:15;;;;;;;41.17;38.97;;;;;;;13.54;100.00;101253.59;5086986;28;20056;-80
2023/09/20 01:52:43;;;;;;;35.10;33.10;;;;;;;13.62;100.00;101248.03;5081807;28;20048;-80
2023/09/20 01:55:21;;;;;;;34.40;32.50;;;;;;;13.83;100.00;101236.19;5086826;28;20454;-79
2023/09/20 01:57:49;;;;;;;36.90;34.80;;;;;;;13.58;100.00;101241.47;5075859;28;20435;-80
2023/09/20 02:00:32;;;;;;;40.00;38.10;;;;;;;13.37;100.00;101253.25;5080897;28;20055;-79
2023/09/20 02:03:06;;;;;;;47.63;45.58;;;;;;;13.54;100.00;101256.28;5076362;28;20435;-79
2023/09/20 02:05:37;;;;;;;41.85;40.00;;;;;;;13.52;100.00;101251.13;5080030;28;20131;-80
2023/09/20 02:08:07;;;;;;;42.63;40.83;;;;;;;13.56;100.00;101244.34;5077813;28;20057;-79
2023/09/20 02:10:36;;;;;;;45.25;43.45;;;;;;;13.64;100.00;101236.09;5082328;28;20390;-75
2023/09/20 02:13:18;;;;;;;41.10;39.30;;;;;;;13.62;100.00;101238.16;5076487;28;20133;-80
2023/09/20 02:15:48;;;;;;;41.83;39.92;;;;;;;13.62;100.00;101246.19;5079908;28;20044;-79
2023/09/20 02:18:18;;;;;;;45.95;43.75;;;;;;;13.54;100.00;101233.06;5079465;28;20048;-74
2023/09/20 02:20:46;;;;;;;40.38;38.28;;;;;;;13.47;100.00;101238.44;5080546;28;20044;-79
2023/09/20 02:23:13;;;;;;;43.33;41.22;;;;;;;13.50;100.00;101240.69;5088991;28;20071;-74
2023/09/20 02:25:42;;;;;;;39.65;37.55;;;;;;;13.18;100.00;101233.59;5077491;28;20067;-79
2023/09/20 02:28:10;;;;;;;43.33;41.03;;;;;;;12.98;100.00;101241.63;5075803;28;20439;-74
2023/09/20 02:30:37;;;;;;;45.75;43.45;;;;;;;13.50;100.00;101227.34;5087579;28;20080;-80
2023/09/20 02:33:06;;;;;;;34.90;33.45;;;;;;;13.69;100.00;101209.59;5077900;28;20056;-80
2023/09/20 02:35:34;;;;;;;39.10;37.20;;;;;;;13.49;100.00;101208.84;5086736;28;20052;-74
2023/09/20 02:38:05;;;;;;;37.90;36.20;;;;;;;13.58;100.00;101212.91;5087724;28;20075;-75
2023/09/20 02:40:50;;;;;;;32.30;30.70;;;;;;;12.83;100.00;101223.25;5086134;28;20135;-79
2023/09/20 02:43:17;;;;;;;31.98;30.38;;;;;;;13.06;100.00;101225.41;5079821;28;20052;-74
2023/09/20 02:45:46;;;;;;;34.60;32.70;;;;;;;13.35;100.00;101234.81;5083690;28;20408;-79
2023/09/20 02:48:14;;;;;;;27.58;26.00;;;;;;;13.42;100.00;101240.09;5087205;28;20102;-73
2023/09/20 02:50:44;;;;;;;32.05;30.55;;;;;;;13.18;100.00;101231.75;5090201;28;20509;-74
2023/09/20 02:53:15;;;;;;;30.23;28.65;;;;;;;13.70;100.00;101234.41;5085303;28;20121;-79
2023/09/20 02:55:42;;;;;;;35.33;33.63;;;;;;;13.66;100.00;101233.22;5089270;28;20079;-75
2023/09/20 02:58:10;;;;;;;39.90;37.63;;;;;;;13.31;100.00;101238.91;5088191;28;20064;-74
2023/09/20 03:00:50;;;;;;;39.35;37.22;;;;;;;13.37;100.00;101232.72;5093290;28;20051;-79
2023/09/20 03:03:18;;;;;;;33.78;31.88;;;;;;;13.53;100.00;101239.44;5078349;28;20056;-79
2023/09/20 03:05:51;;;;;;;27.77;26.17;;;;;;;13.21;100.00;101247.31;5083222;28;20059;-78
2023/09/20 03:08:33;;;;;;;31.95;30.15;;;;;;;13.47;100.00;101248.31;5076420;28;20052;-80
2023/09/20 03:11:20;;;;;;;41.65;39.65;;;;;;;13.89;100.00;101252.19;5089529;28;20055;-74
2023/09/20 03:13:48;;;;;;;33.92;32.38;;;;;;;14.02;100.00;101255.81;5074373;28;20048;-74
2023/09/20 03:16:27;;;;;;;33.60;31.77;;;;;;;14.15;100.00;101248.50;5077788;28;20049;-74
2023/09/20 03:18:55;;;;;;;27.10;25.80;;;;;;;14.14;100.00;101252.22;5086231;28;20052;-74
2023/09/20 03:21:23;;;;;;;30.25;28.75;;;;;;;14.27;100.00;101243.28;5079931;28;20512;-80
2023/09/20 03:23:56;;;;;;;31.83;30.20;;;;;;;13.63;100.00;101247.81;5094499;28;20055;-80
2023/09/20 03:26:38;;;;;;;65.07;61.85;;;;;;;13.87;100.00;101237.41;5094294;28;20077;-80
2023/09/20 03:29:37;;;;;;;71.50;67.95;;;;;;;14.01;100.00;101240.81;5094480;28;20051;-80
2023/09/20 03:32:33;;;;;;;77.70;73.90;;;;;;;14.21;100.00;101234.28;5094269;28;20060;-80
2023/09/20 03:35:00;;;;;;;77.95;74.03;;;;;;;13.57;100.00;101235.31;5091228;28;20044;-74
2023/09/20 03:37:28;;;;;;;50.90;48.20;;;;;;;14.03;100.00;101244.09;5076195;28;20496;-74
2023/09/20 03:39:55;;;;;;;29.90;28.50;;;;;;;14.05;100.00;101239.34;5084809;28;20094;-74
2023/09/20 03:42:22;;;;;;;26.23;24.92;;;;;;;13.94;100.00;101230.97;5085280;28;20534;-80
2023/09/20 03:44:51;;;;;;;29.83;28.33;;;;;;;13.86;100.00;101233.13;5084412;28;20486;-74
2023/09/20 03:47:18;;;;;;;66.68;63.38;;;;;;;13.89;100.00;101230.00;5082265;28;20500;-74
2023/09/20 03:49:45;;;;;;;69.97;66.68;;;;;;;13.96;100.00;101228.91;5080355;28;20048;-74
2023/09/20 03:52:11;;;;;;;59.75;56.92;;;;;;;14.06;100.00;101230.28;5073605;28;20048;-80
2023/09/20 03:54:38;;;;;;;32.42;30.92;;;;;;;14.13;100.00;101223.03;5089494;28;20056;-80
2023/09/20 03:57:07;;;;;;;33.60;31.13;;;;;;;14.13;100.00;101215.88;5089498;28;20574;-79
2023/09/20 03:59:34;;;;;;;34.28;32.08;;;;;;;13.95;100.00;101219.28;5087759;28;20052;-80
2023/09/20 04:02:03;;;;;;;55.10;52.20;;;;;;;14.04;100.00;101227.84;5080163;28;20451;-80
2023/09/20 04:04:30;;;;;;;77.15;72.45;;;;;;;13.74;100.00;101232.97;5073235;28;20218;-79
2023/09/20 04:06:59;;;;;;;70.75;66.65;;;;;;;13.59;100.00;101235.94;5073204;28;20059;-80
2023/09/20 04:09:26;;;;;;;67.45;63.78;;;;;;;13.28;100.00;101247.31;5086938;28;20052;-80
2023/09/20 04:11:53;;;;;;;59.08;55.88;;;;;;;14.07;100.00;101239.94;5085865;28;20145;-80
2023/09/20 04:14:32;;;;;;;60.05;56.83;;;;;;;14.62;100.00;101237.50;5083267;28;20078;-80
2023/09/20 04:16:59;;;;;;;33.97;32.33;;;;;;;14.57;100.00;101240.00;5092217;28;20477;-80
2023/09/20 04:19:27;;;;;;;35.05;33.15;;;;;;;14.91;100.00;101235.13;5093088;28;20056;-80
2023/09/20 04:21:55;;;;;;;34.55;32.75;;;;;;;14.74;100.00;101230.38;5093231;28;20188;-80
2023/09/20 04:24:22;;;;;;;20.30;19.20;;;;;;;14.92;100.00;101234.94;5088351;28;20056;-80
2023/09/20 04:26:49;;;;;;;37.35;35.35;;;;;;;14.92;100.00;101234.94;5075317;28;20061;-80
2023/09/20 04:29:16;;;;;;;42.40;40.30;;;;;;;14.98;100.00;101241.25;5092963;28;20052;-80
2023/09/20 04:31:44;;;;;;;20.75;19.55;;;;;;;14.70;100.00;101241.72;5089400;28;20048;-80
2023/09/20 04:34:16;;;;;;;18.67;17.58;;;;;;;14.88;100.00;101247.09;5092963;28;20127;-80
2023/09/20 04:36:45;;;;;;;18.33;17.30;;;;;;;14.99;100.00;101253.56;5081989;28;20067;-80
2023/09/20 04:39:12;;;;;;;18.20;17.30;;;;;;;14.86;100.00;101241.16;5071821;28;20143;-80
2023/09/20 04:41:44;;;;;;;19.73;18.67;;;;;;;15.29;100.00;101242.94;5072342;28;20053;-80
2023/09/20 04:44:28;;;;;;;19.98;18.85;;;;;;;15.28;100.00;101243.97;5072444;28;20151;-80
2023/09/20 04:46:57;;;;;;;20.60;19.50;;;;;;;15.49;100.00;101250.72;5072647;28;20060;-80
2023/09/20 04:49:24;;;;;;;18.60;17.50;;;;;;;15.54;100.00;101243.66;5072112;28;20060;-80
2023/09/20 04:52:00;;;;;;;18.77;17.77;;;;;;;15.44;100.00;101245.25;5071854;28;20056;-80
2023/09/20 04:54:27;;;;;;;18.60;17.50;;;;;;;15.55;100.00;101252.50;5071875;28;20041;-80
2023/09/20 04:56:57;;;;;;;19.92;18.50;;;;;;;15.58;100.00;101244.00;5072491;28;20053;-80
2023/09/20 04:59:24;;;;;;;20.38;19.25;;;;;;;18.14;100.00;101245.19;5071978;28;20049;-74
2023/09/20 05:01:51;;;;;;;22.00;20.60;;;;;;;19.50;100.00;101249.25;5076444;28;20052;-74
2023/09/20 05:04:20;;;;;;;20.08;18.77;;;;;;;23.15;100.00;101234.16;5075427;28;20134;-74
2023/09/20 05:06:47;;;;;;;21.85;20.15;;;;;;;24.19;100.00;101231.38;5083184;28;20044;-80
2023/09/20 05:09:15;;;;;;;21.88;20.50;;;;;;;24.76;100.00;101243.34;5092433;28;20059;-80
2023/09/20 05:11:42;;;;;;;20.50;19.20;;;;;;;24.91;100.00;101243.16;5073316;28;20055;-81
2023/09/20 05:14:09;;;;;;;21.20;19.70;;;;;;;24.87;100.00;101249.44;5078102;28;20489;-82
2023/09/20 05:16:36;;;;;;;19.38;18.08;;;;;;;24.71;100.00;101246.09;5075825;28;20052;-81
2023/09/20 05:19:03;;;;;;;20.58;19.17;;;;;;;24.60;100.00;101248.13;5076888;28;20075;-82
2023/09/20 05:21:29;;;;;;;20.67;19.48;;;;;;;24.57;100.00;101259.56;5076397;28;20079;-82
2023/09/20 05:23:57;;;;;;;22.30;20.80;;;;;;;24.53;100.00;101252.25;5083405;28;20087;-80
2023/09/20 05:26:26;;;;;;;20.80;19.50;;;;;;;23.66;100.00;101267.28;5083335;28;20048;-80
2023/09/20 05:28:58;;;;;;;23.52;21.17;;;;;;;18.21;100.00;101280.78;5077005;28;20063;-80
2023/09/20 05:31:26;;;;;;;21.20;20.00;;;;;;;17.34;100.00;101272.94;5073992;28;20053;-80
2023/09/20 05:33:55;;;;;;;20.83;19.52;;;;;;;16.94;100.00;101279.91;5076328;28;20109;-80
2023/09/20 05:36:23;;;;;;;22.73;21.17;;;;;;;16.59;100.00;101285.22;5070009;28;20141;-80
2023/09/20 05:38:51;;;;;;;25.00;23.13;;;;;;;16.52;100.00;101291.72;5082817;28;20055;-80
2023/09/20 05:41:18;;;;;;;24.73;23.13;;;;;;;16.80;100.00;101288.41;5084463;28;20139;-80
2023/09/20 05:43:46;;;;;;;24.25;21.38;;;;;;;16.65;100.00;101281.59;5078547;28;20148;-80
2023/09/20 05:46:14;;;;;;;27.52;25.08;;;;;;;16.72;100.00;101284.97;5081307;28;20048;-75
2023/09/20 05:48:42;;;;;;;24.20;22.65;;;;;;;17.01;100.00;101287.81;5081807;28;20138;-80
2023/09/20 05:51:14;;;;;;;23.63;21.70;;;;;;;17.19;100.00;101276.13;5081581;28;20060;-80
2023/09/20 05:53:41;;;;;;;48.55;39.85;;;;;;;17.37;100.00;101283.22;5090858;28;20063;-80
2023/09/20 05:56:11;;;;;;;23.13;21.83;;;;;;;16.79;100.00;101289.44;5088660;28;20055;-74
2023/09/20 05:58:38;;;;;;;25.02;23.23;;;;;;;17.20;100.00;101280.44;5078006;28;20114;-74
2023/09/20 06:01:09;;;;;;;25.98;24.15;;;;;;;17.23;100.00;101285.34;5085110;28;21002;-79
2023/09/20 06:03:36;;;;;;;27.63;26.08;;;;;;;17.23;100.00;101292.56;5078613;28;20054;-80
2023/09/20 13:10:39;;;;;;;24.90;23.13;;;;;;;31.24;83.93;101137.34;5083639;27;21303;-75
2023/09/20 13:13:08;;;;;;;22.95;21.35;;;;;;;31.45;84.36;101140.91;5074165;28;20052;-75
2023/09/20 13:15:35;;;;;;;23.27;21.58;;;;;;;32.02;80.06;101146.81;5067253;28;20052;-75
2023/09/20 13:18:02;;;;;;;24.90;23.10;;;;;;;32.23;72.54;101135.75;5073333;28;20048;-75
2023/09/20 13:20:31;;;;;;;23.35;21.70;;;;;;;30.82;78.24;101131.88;5068320;28;20052;-76
2023/09/20 13:22:58;;;;;;;24.58;22.88;;;;;;;31.09;82.55;101135.22;5064290;28;20551;-75
2023/09/20 13:25:27;;;;;;;21.75;20.15;;;;;;;31.68;79.73;101132.28;5066189;28;20110;-75
2023/09/20 13:27:55;;;;;;;24.35;22.55;;;;;;;31.56;78.57;101135.81;5064108;28;20076;-75
2023/09/20 13:30:23;;;;;;;25.85;23.77;;;;;;;31.31;80.61;101125.84;5066653;28;20052;-75
2023/09/20 13:32:49;;;;;;;23.77;22.17;;;;;;;31.77;80.00;101121.22;5073428;28;20129;-75
2023/09/20 13:35:16;;;;;;;23.05;21.33;;;;;;;31.45;80.78;101121.69;5069275;28;20445;-75
2023/09/20 13:37:45;;;;;;;24.70;23.10;;;;;;;31.83;80.72;101115.19;5067726;28;20056;-75
2023/09/20 13:40:15;;;;;;;24.77;23.17;;;;;;;31.37;78.59;101117.09;5070099;28;20283;-74
2023/09/20 13:42:44;;;;;;;26.00;24.10;;;;;;;30.94;86.47;101112.75;5067738;28;20048;-75
2023/09/20 13:45:14;;;;;;;23.25;21.65;;;;;;;30.13;93.84;101108.31;5068343;28;20080;-75
2023/09/20 13:47:42;;;;;;;24.25;22.38;;;;;;;30.86;90.66;101102.63;5065536;28;20052;-75
2023/09/20 13:50:10;;;;;;;24.55;22.95;;;;;;;31.31;86.03;101101.94;5064758;28;20138;-75
2023/09/20 13:52:40;;;;;;;23.88;22.00;;;;;;;30.41;88.22;101088.72;5071018;28;20402;-75
2023/09/20 13:55:08;;;;;;;26.50;24.80;;;;;;;31.26;87.06;101097.47;5074184;28;20044;-75
2023/09/20 13:57:35;;;;;;;25.13;23.50;;;;;;;31.39;84.97;101090.13;5067686;28;20067;-75
2023/09/20 14:00:09;;;;;;;27.92;26.23;;;;;;;30.67;89.85;101091.31;5066854;28;20439;-75
2023/09/20 14:02:40;;;;;;;27.10;25.30;;;;;;;30.65;95.49;101085.34;5069823;28;20543;-75
2023/09/20 14:05:14;;;;;;;24.42;22.92;;;;;;;30.12;93.08;101093.03;5063290;28;20102;-75
2023/09/20 14:07:42;;;;;;;23.42;21.92;;;;;;;29.97;99.16;101091.66;5067383;28;20056;-75
2023/09/20 14:10:10;;;;;;;25.33;23.63;;;;;;;29.39;100.00;101101.28;5051898;28;20049;-75
2023/09/20 14:12:38;;;;;;;26.48;24.88;;;;;;;30.06;100.00;101091.63;5057497;28;20045;-75
2023/09/20 14:15:10;;;;;;;23.05;21.55;;;;;;;29.79;100.00;101095.59;5056451;28;20353;-74
2023/09/20 14:17:40;;;;;;;25.60;23.90;;;;;;;29.70;100.00;101092.06;5051040;28;20049;-75
2023/09/20 14:20:09;;;;;;;26.52;24.83;;;;;;;29.92;100.00;101089.09;5048194;28;20047;-74
2023/09/20 14:22:36;;;;;;;27.05;25.25;;;;;;;30.11;100.00;101088.72;5050567;28;20068;-75
2023/09/20 14:25:06;;;;;;;25.08;23.38;;;;;;;29.93;100.00;101079.75;5061085;28;20454;-75
2023/09/20 14:27:33;;;;;;;25.17;23.38;;;;;;;29.45;100.00;101091.78;5056739;28;20075;-76
2023/09/20 14:30:04;;;;;;;22.55;20.95;;;;;;;29.65;100.00;101082.91;5050530;28;20083;-75
2023/09/20 14:32:31;;;;;;;22.52;20.92;;;;;;;29.20;100.00;101080.53;5051260;28;20077;-75
2023/09/20 14:35:00;;;;;;;22.38;20.88;;;;;;;28.52;100.00;101076.59;5054681;28;20059;-75
2023/09/20 14:37:27;;;;;;;23.00;21.40;;;;;;;28.05;100.00;101074.34;5053082;28;20056;-75
2023/09/20 14:39:56;;;;;;;21.98;20.48;;;;;;;28.74;100.00;101083.84;5050638;28;20429;-75
2023/09/20 14:42:23;;;;;;;20.88;19.38;;;;;;;28.49;100.00;101075.31;5050213;28;20075;-75
2023/09/20 14:44:52;;;;;;;21.70;20.20;;;;;;;28.28;100.00;101066.84;5054492;28;20395;-74
2023/09/20 14:47:18;;;;;;;23.10;21.40;;;;;;;28.04;100.00;101071.91;5052321;28;20049;-75
2023/09/20 14:49:45;;;;;;;24.67;23.08;;;;;;;28.07;100.00;101077.53;5050482;28;20055;-75
2023/09/20 14:52:14;;;;;;;23.50;21.90;;;;;;;27.97;100.00;101074.31;5052822;28;20048;-75
2023/09/20 14:54:42;;;;;;;24.92;23.33;;;;;;;27.90;100.00;101079.41;5057570;28;20528;-75
2023/09/20 14:57:08;;;;;;;23.70;22.20;;;;;;;27.55;100.00;101074.53;5054147;28;20052;-72
2023/09/20 14:59:36;;;;;;;23.88;22.38;;;;;;;27.22;100.00;101079.44;5050443;28;20045;-72
2023/09/20 15:02:04;;;;;;;24.27;21.92;;;;;;;27.21;100.00;101077.03;5052913;28;20049;-71
2023/09/20 15:04:31;;;;;;;23.77;22.38;;;;;;;26.91;100.00;101077.41;5053897;28;20491;-71
2023/09/20 15:06:58;;;;;;;23.45;21.95;;;;;;;26.85;100.00;101084.09;5054517;28;20052;-72
2023/09/20 15:09:26;;;;;;;23.08;21.67;;;;;;;26.88;100.00;101077.22;5049378;28;20053;-71
2023/09/20 15:11:54;;;;;;;31.73;22.60;;;;;;;26.63;100.00;101076.66;5051435;28;20041;-71
2023/09/20 15:14:21;;;;;;;39.58;37.03;;;;;;;26.33;100.00;101082.72;5053179;28;20102;-72
2023/09/20 15:16:48;;;;;;;56.25;52.55;;;;;;;26.19;100.00;101080.00;5054304;28;20072;-71
2023/09/20 15:19:15;;;;;;;63.10;57.75;;;;;;;26.09;100.00;101078.28;5055370;28;20056;-71
2023/09/20 15:21:42;;;;;;;65.57;59.67;;;;;;;26.07;100.00;101079.69;5053869;28;20082;-72
2023/09/20 15:24:11;;;;;;;68.28;61.67;;;;;;;25.90;100.00;101077.53;5052566;28;20060;-71
2023/09/20 15:26:39;;;;;;;21.33;19.92;;;;;;;25.82;100.00;101079.03;5050996;28;20070;-74
2023/09/20 15:29:08;;;;;;;20.10;18.70;;;;;;;25.80;100.00;101068.41;5049133;28;20056;-75
2023/09/20 15:31:34;;;;;;;23.70;21.67;;;;;;;25.71;100.00;101081.09;5050599;28;20041;-75
2023/09/20 15:34:03;;;;;;;22.02;20.52;;;;;;;25.57;100.00;101077.56;5050446;28;20041;-75
2023/09/20 15:36:30;;;;;;;22.02;20.63;;;;;;;25.49;100.00;101081.75;5048272;28;20051;-75
2023/09/20 15:38:57;;;;;;;20.98;19.55;;;;;;;25.38;100.00;101076.78;5049601;28;20049;-75
2023/09/20 15:41:25;;;;;;;21.33;19.92;;;;;;;25.31;100.00;101080.69;5052406;28;20045;-75
2023/09/20 15:43:54;;;;;;;20.15;18.73;;;;;;;25.25;100.00;101079.16;5053043;28;20048;-74
2023/09/20 15:46:24;;;;;;;20.90;19.50;;;;;;;25.15;100.00;101079.31;5054037;28;20053;-75
2023/09/20 15:48:53;;;;;;;20.08;18.70;;;;;;;25.07;100.00;101085.38;5047998;28;20423;-75
2023/09/20 15:51:23;;;;;;;20.88;18.85;;;;;;;24.95;100.00;101080.38;5050560;28;20415;-75
2023/09/20 15:53:52;;;;;;;19.80;18.50;;;;;;;24.89;100.00;101084.28;5051730;28;20053;-75
2023/09/20 15:56:19;;;;;;;20.92;19.63;;;;;;;24.70;100.00;101083.47;5050528;28;20480;-71
2023/09/20 15:58:46;;;;;;;21.70;19.90;;;;;;;24.56;100.00;101086.88;5051335;28;20114;-72
2023/09/20 16:01:15;;;;;;;21.80;20.40;;;;;;;24.51;100.00;101078.81;5049423;28;20486;-71
2023/09/20 16:03:42;;;;;;;20.45;19.05;;;;;;;24.44;100.00;101083.75;5058907;28;20127;-72
2023/09/20 16:06:10;;;;;;;20.42;19.02;;;;;;;24.35;100.00;101080.84;5054232;28;20053;-72
2023/09/20 16:08:37;;;;;;;21.60;20.20;;;;;;;24.18;100.00;101084.03;5050850;28;20071;-72
2023/09/20 16:11:04;;;;;;;33.78;21.42;;;;;;;24.05;100.00;101090.13;5045538;28;20057;-71
2023/09/20 16:13:31;;;;;;;21.58;20.08;;;;;;;23.95;100.00;101079.41;5053486;28;20506;-75
2023/09/20 16:16:00;;;;;;;20.23;18.95;;;;;;;23.83;100.00;101077.06;5053807;28;20044;-72
2023/09/20 16:18:29;;;;;;;24.15;22.65;;;;;;;23.75;100.00;101078.50;5049545;28;20133;-72
2023/09/20 16:20:57;;;;;;;21.88;20.48;;;;;;;23.64;100.00;101078.84;5049384;28;20041;-72
2023/09/20 16:23:26;;;;;;;22.63;21.05;;;;;;;23.54;100.00;101083.28;5050560;28;20044;-71
2023/09/20 16:25:53;;;;;;;37.75;35.55;;;;;;;23.43;100.00;101086.34;5056580;28;20045;-75
2023/09/20 16:28:21;;;;;;;20.88;19.67;;;;;;;23.35;100.00;101086.94;5052170;28;20414;-75
2023/09/20 16:30:48;;;;;;;27.25;25.75;;;;;;;23.09;100.00;101090.63;5049888;28;20494;-75
2023/09/20 16:33:14;;;;;;;41.75;39.95;;;;;;;22.58;100.00;101095.47;5049300;28;20052;-76
2023/09/20 16:35:43;;;;;;;53.50;50.78;;;;;;;22.41;100.00;101099.31;5055148;28;20049;-75
2023/09/20 16:38:11;;;;;;;60.65;57.30;;;;;;;21.93;100.00;101098.84;5052095;28;20144;-75
2023/09/20 16:40:38;;;;;;;69.38;65.78;;;;;;;21.87;100.00;101102.66;5048075;28;20586;-74
2023/09/20 16:43:05;;;;;;;28.27;26.98;;;;;;;21.59;100.00;101100.50;5056562;28;20044;-75
2023/09/20 16:45:32;;;;;;;28.83;27.42;;;;;;;21.55;100.00;101111.06;5053209;28;20052;-75
2023/09/20 16:48:00;;;;;;;34.40;30.40;;;;;;;21.37;100.00;101108.88;5050168;28;20480;-75
2023/09/20 16:50:27;;;;;;;34.75;33.10;;;;;;;21.49;100.00;101112.94;5054499;28;20481;-75
2023/09/20 16:52:55;;;;;;;27.42;26.13;;;;;;;21.52;100.00;101111.59;5050148;28;20430;-75
2023/09/20 16:55:25;;;;;;;32.00;30.52;;;;;;;21.25;100.00;101122.59;5056663;28;20056;-75
2023/09/20 16:57:52;;;;;;;23.80;22.40;;;;;;;20.99;100.00;101114.41;5054592;28;20113;-75
2023/09/20 17:00:19;;;;;;;23.45;22.15;;;;;;;20.90;100.00;101121.41;5052742;28;20051;-75
2023/09/20 17:02:46;;;;;;;26.60;24.90;;;;;;;21.16;100.00;101126.91;5049075;28;20052;-75
2023/09/20 17:05:14;;;;;;;26.88;25.13;;;;;;;21.20;100.00;101131.50;5055925;28;20076;-75
2023/09/20 17:07:41;;;;;;;26.05;24.35;;;;;;;21.32;100.00;101130.44;5047506;28;20147;-75
2023/09/20 17:10:11;;;;;;;25.50;23.90;;;;;;;21.12;100.00;101133.91;5041434;28;20057;-74
2023/09/20 17:12:38;;;;;;;24.65;23.05;;;;;;;20.76;100.00;101133.81;5054471;28;20060;-75
2023/09/20 17:15:06;;;;;;;23.70;22.20;;;;;;;20.61;100.00;101137.25;5052604;28;20113;-75
2023/09/20 17:17:33;;;;;;;23.70;22.40;;;;;;;20.63;100.00;101145.06;5054334;28;20045;-74
2023/09/20 17:20:01;;;;;;;34.30;32.30;;;;;;;20.55;100.00;101144.50;5054921;28;20049;-75
2023/09/20 17:22:28;;;;;;;28.08;26.38;;;;;;;20.26;100.00;101146.72;5050368;28;20083;-75
2023/09/20 17:24:55;;;;;;;28.77;26.98;;;;;;;20.10;100.00;101147.69;5053720;28;20080;-75
2023/09/20 17:27:23;;;;;;;36.33;34.42;;;;;;;20.31;100.00;101159.44;5048839;28;20053;-75
2023/09/20 17:29:53;;;;;;;26.48;25.08;;;;;;;20.03;100.00;101158.69;5049632;28;20083;-75
2023/09/20 17:32:20;;;;;;;29.92;28.23;;;;;;;20.10;100.00;101159.28;5051271;28;20135;-74
2023/09/20 17:34:48;;;;;;;30.73;29.02;;;;;;;20.21;100.00;101162.88;5051932;28;20052;-75
2023/09/20 17:37:16;;;;;;;43.85;41.65;;;;;;;20.12;100.00;101167.94;5050380;28;20053;-75
2023/09/20 17:39:43;;;;;;;34.92;32.78;;;;;;;19.70;100.00;101173.25;5041833;28;20052;-75
2023/09/20 17:42:10;;;;;;;50.25;29.70;;;;;;;19.63;100.00;101177.97;5050218;28;20136;-74
2023/09/20 17:44:38;;;;;;;53.58;25.42;;;;;;;20.52;100.00;101180.09;5048970;28;20052;-71
2023/09/20 17:47:07;;;;;;;35.70;34.00;;;;;;;20.30;100.00;101182.06;5052982;28;20494;-71
2023/09/20 17:49:35;;;;;;;36.92;35.08;;;;;;;20.22;100.00;101186.06;5058292;28;20084;-71
2023/09/20 17:52:04;;;;;;;29.08;27.67;;;;;;;20.07;100.00;101192.16;5065600;28;20052;-75
2023/09/20 17:54:31;;;;;;;22.73;21.42;;;;;;;19.89;100.00;101190.66;5058112;28;20515;-71
2023/09/20 17:57:00;;;;;;;21.08;19.63;;;;;;;19.56;100.00;101191.66;5055988;28;20159;-74
2023/09/20 17:59:27;;;;;;;29.60;28.08;;;;;;;19.71;100.00;101196.44;5052983;28;20045;-71
2023/09/20 18:01:57;;;;;;;28.02;26.63;;;;;;;19.67;100.00;101192.63;5055201;28;20533;-71
2023/09/20 18:04:24;;;;;;;29.90;26.73;;;;;;;19.84;100.00;101195.19;5053410;28;20041;-71
2023/09/20 18:06:51;;;;;;;31.45;29.65;;;;;;;20.25;100.00;101190.94;5054596;28;20463;-71
2023/09/20 18:09:18;;;;;;;32.95;31.15;;;;;;;20.42;100.00;101193.47;5053296;28;20057;-71
2023/09/20 18:11:48;;;;;;;33.25;31.35;;;;;;;20.50;100.00;101189.47;5048938;28;20049;-71
2023/09/20 18:14:15;;;;;;;34.97;32.97;;;;;;;20.43;100.00;101199.69;5053319;28;20059;-72
2023/09/20 18:16:44;;;;;;;31.95;30.20;;;;;;;19.96;100.00;101205.81;5057508;28;20040;-71